sensor_id;sensor_type;location;lat;lon;timestamp;pressure;altitude;pressure_sealevel;temperature;humidity
70206;BME280;57593;55.896;37.396;2022-10-16T00:00:13;100569.50;;;6.29;100.00
70206;BME280;57593;55.896;37.396;2022-10-16T00:00:45;100566.38;;;6.27;100.00
70206;BME280;57593;55.896;37.396;2022-10-16T00:01:19;100568.50;;;6.20;100.00
70206;BME280;57593;55.896;37.396;2022-10-16T00:01:50;100568.50;;;6.20;100.00
70206;BME280;57593;55.896;37.396;2022-10-16T00:02:20;100572.97;;;6.19;100.00
70206;BME280;57593;55.896;37.396;2022-10-16T00:02:51;100573.22;;;6.23;100.00
70206;BME280;57593;55.896;37.396;2022-10-16T00:03:21;100576.91;;;6.22;100.00
70206;BME280;57593;55.896;37.396;2022-10-16T00:03:52;100569.56;;;6.19;100.00
70206;BME280;57593;55.896;37.396;2022-10-16T00:04:23;100573.25;;;6.18;100.00
70206;BME280;57593;55.896;37.396;2022-10-16T00:04:53;100571.38;;;6.23;100.00
70206;BME280;57593;55.896;37.396;2022-10-16T00:05:25;100572.19;;;6.19;100.00
70206;BME280;57593;55.896;37.396;2022-10-16T00:05:59;100579.03;;;6.15;100.00
70206;BME280;57593;55.896;37.396;2022-10-16T00:06:30;100575.91;;;6.13;100.00
70206;BME280;57593;55.896;37.396;2022-10-16T00:07:01;100571.94;;;6.15;100.00
70206;BME280;57593;55.896;37.396;2022-10-16T00:07:32;100572.75;;;6.10;100.00
70206;BME280;57593;55.896;37.396;2022-10-16T00:08:03;100568.03;;;6.13;100.00
70206;BME280;57593;55.896;37.396;2022-10-16T00:08:34;100573.78;;;6.15;100.00
70206;BME280;57593;55.896;37.396;2022-10-16T00:09:06;100579.03;;;6.15;100.00
70206;BME280;57593;55.896;37.396;2022-10-16T00:09:36;100577.44;;;6.14;100.00
70206;BME280;57593;55.896;37.396;2022-10-16T00:10:07;100572.75;;;6.10;100.00
70206;BME280;57593;55.896;37.396;2022-10-16T00:10:38;100571.94;;;6.15;100.00
70206;BME280;57593;55.896;37.396;2022-10-16T00:11:33;100575.09;;;6.17;100.00
70206;BME280;57593;55.896;37.396;2022-10-16T00:12:04;100568.56;;;6.09;100.00
70206;BME280;57593;55.896;37.396;2022-10-16T00:12:36;100584.81;;;6.11;100.00
70206;BME280;57593;55.896;37.396;2022-10-16T00:13:08;100586.38;;;6.13;100.00
70206;BME280;57593;55.896;37.396;2022-10-16T00:13:40;100582.44;;;6.15;100.00
70206;BME280;57593;55.896;37.396;2022-10-16T00:14:14;100583.97;;;6.21;100.00
70206;BME280;57593;55.896;37.396;2022-10-16T00:14:45;100588.75;;;6.14;100.00
70206;BME280;57593;55.896;37.396;2022-10-16T00:15:15;100581.66;;;6.15;100.00
70206;BME280;57593;55.896;37.396;2022-10-16T00:15:46;100583.22;;;6.10;100.00
70206;BME280;57593;55.896;37.396;2022-10-16T00:16:18;100584.84;;;6.06;100.00
70206;BME280;57593;55.896;37.396;2022-10-16T00:16:49;100582.50;;;6.05;100.00
70206;BME280;57593;55.896;37.396;2022-10-16T00:17:19;100587.19;;;6.03;100.00
70206;BME280;57593;55.896;37.396;2022-10-16T00:17:50;100574.63;;;6.00;100.00
70206;BME280;57593;55.896;37.396;2022-10-16T00:18:21;100587.72;;;6.00;100.00
70206;BME280;57593;55.896;37.396;2022-10-16T00:18:52;100582.50;;;6.00;100.00
70206;BME280;57593;55.896;37.396;2022-10-16T00:19:22;100579.88;;;6.00;100.00
70206;BME280;57593;55.896;37.396;2022-10-16T00:19:53;100591.16;;;6.00;100.00
70206;BME280;57593;55.896;37.396;2022-10-16T00:20:42;100588.00;;;6.03;100.00
70206;BME280;57593;55.896;37.396;2022-10-16T00:21:32;100590.59;;;6.08;100.00
70206;BME280;57593;55.896;37.396;2022-10-16T00:22:22;100586.44;;;5.97;100.00
70206;BME280;57593;55.896;37.396;2022-10-16T00:22:53;100590.34;;;6.00;100.00
70206;BME280;57593;55.896;37.396;2022-10-16T00:23:24;100589.59;;;5.99;100.00
70206;BME280;57593;55.896;37.396;2022-10-16T00:23:58;100589.81;;;6.03;100.00
70206;BME280;57593;55.896;37.396;2022-10-16T00:24:29;100590.63;;;5.98;100.00
70206;BME280;57593;55.896;37.396;2022-10-16T00:25:00;100591.41;;;6.04;100.00
70206;BME280;57593;55.896;37.396;2022-10-16T00:25:31;100587.19;;;6.03;100.00
70206;BME280;57593;55.896;37.396;2022-10-16T00:26:06;100591.13;;;5.95;100.00
70206;BME280;57593;55.896;37.396;2022-10-16T00:26:39;100591.13;;;5.95;100.00
70206;BME280;57593;55.896;37.396;2022-10-16T00:27:10;100600.06;;;5.94;100.00
70206;BME280;57593;55.896;37.396;2022-10-16T00:27:40;100596.13;;;5.91;100.00
70206;BME280;57593;55.896;37.396;2022-10-16T00:28:11;100595.34;;;5.96;100.00
70206;BME280;57593;55.896;37.396;2022-10-16T00:28:41;100591.69;;;5.97;100.00
70206;BME280;57593;55.896;37.396;2022-10-16T00:29:12;100590.09;;;5.96;100.00
70206;BME280;57593;55.896;37.396;2022-10-16T00:29:43;100596.69;;;5.99;100.00
70206;BME280;57593;55.896;37.396;2022-10-16T00:30:14;100600.84;;;5.94;100.00
70206;BME280;57593;55.896;37.396;2022-10-16T00:30:44;100592.47;;;5.98;100.00
70206;BME280;57593;55.896;37.396;2022-10-16T00:31:17;100586.97;;;5.94;100.00
70206;BME280;57593;55.896;37.396;2022-10-16T00:31:48;100588.00;;;5.98;100.00
70206;BME280;57593;55.896;37.396;2022-10-16T00:32:19;100586.41;;;5.92;100.00
70206;BME280;57593;55.896;37.396;2022-10-16T00:32:50;100586.97;;;5.99;100.00
70206;BME280;57593;55.896;37.396;2022-10-16T00:33:21;100587.47;;;6.01;100.00
70206;BME280;57593;55.896;37.396;2022-10-16T00:33:51;100595.09;;;5.98;100.00
70206;BME280;57593;55.896;37.396;2022-10-16T00:34:22;100594.03;;;5.93;100.00
70206;BME280;57593;55.896;37.396;2022-10-16T00:34:53;100591.44;;;5.99;100.00
70206;BME280;57593;55.896;37.396;2022-10-16T00:35:25;100596.13;;;5.97;100.00
70206;BME280;57593;55.896;37.396;2022-10-16T00:36:01;100592.97;;;6.00;100.00
70206;BME280;57593;55.896;37.396;2022-10-16T00:36:32;100592.97;;;5.94;100.00
70206;BME280;57593;55.896;37.396;2022-10-16T00:37:02;100599.81;;;6.01;100.00
70206;BME280;57593;55.896;37.396;2022-10-16T00:37:33;100597.19;;;6.01;100.00
70206;BME280;57593;55.896;37.396;2022-10-16T00:38:04;100593.78;;;6.00;100.00
70206;BME280;57593;55.896;37.396;2022-10-16T00:38:34;100592.19;;;5.94;100.00
70206;BME280;57593;55.896;37.396;2022-10-16T00:39:05;100584.84;;;5.96;100.00
70206;BME280;57593;55.896;37.396;2022-10-16T00:39:35;100597.97;;;5.91;100.00
70206;BME280;57593;55.896;37.396;2022-10-16T00:40:06;100594.81;;;5.94;100.00
70206;BME280;57593;55.896;37.396;2022-10-16T00:40:37;100597.19;;;5.96;100.00
70206;BME280;57593;55.896;37.396;2022-10-16T00:41:12;100592.75;;;5.91;100.00
70206;BME280;57593;55.896;37.396;2022-10-16T00:41:43;100585.91;;;5.90;100.00
70206;BME280;57593;55.896;37.396;2022-10-16T00:42:17;100596.41;;;5.90;100.00
70206;BME280;57593;55.896;37.396;2022-10-16T00:42:48;100597.19;;;5.90;100.00
70206;BME280;57593;55.896;37.396;2022-10-16T00:43:46;100603.50;;;5.84;100.00
70206;BME280;57593;55.896;37.396;2022-10-16T00:44:52;100596.16;;;5.86;100.00
70206;BME280;57593;55.896;37.396;2022-10-16T00:45:23;100594.31;;;5.87;100.00
70206;BME280;57593;55.896;37.396;2022-10-16T00:45:54;100594.31;;;5.87;100.00
70206;BME280;57593;55.896;37.396;2022-10-16T00:46:28;100591.69;;;5.87;100.00
70206;BME280;57593;55.896;37.396;2022-10-16T00:47:00;100604.03;;;5.86;100.00
70206;BME280;57593;55.896;37.396;2022-10-16T00:47:50;100597.00;;;5.76;100.00
70206;BME280;57593;55.896;37.396;2022-10-16T00:48:22;100599.84;;;5.80;100.00
70206;BME280;57593;55.896;37.396;2022-10-16T00:49:00;100598.50;;;5.83;100.00
70206;BME280;57593;55.896;37.396;2022-10-16T00:49:32;100594.34;;;5.82;100.00
70206;BME280;57593;55.896;37.396;2022-10-16T00:50:13;100595.34;;;5.86;100.00
70206;BME280;57593;55.896;37.396;2022-10-16T00:50:46;100593.28;;;5.88;100.00
70206;BME280;57593;55.896;37.396;2022-10-16T00:51:19;100599.84;;;5.80;100.00
70206;BME280;57593;55.896;37.396;2022-10-16T00:51:53;100597.50;;;5.79;100.00
70206;BME280;57593;55.896;37.396;2022-10-16T00:52:24;100605.34;;;5.79;100.00
70206;BME280;57593;55.896;37.396;2022-10-16T00:52:56;100601.69;;;5.74;100.00
70206;BME280;57593;55.896;37.396;2022-10-16T00:53:27;100597.75;;;5.77;100.00
70206;BME280;57593;55.896;37.396;2022-10-16T00:53:59;100606.41;;;5.78;100.00
70206;BME280;57593;55.896;37.396;2022-10-16T00:54:31;100601.94;;;5.83;100.00
70206;BME280;57593;55.896;37.396;2022-10-16T00:55:04;100604.03;;;5.81;100.00
70206;BME280;57593;55.896;37.396;2022-10-16T00:55:36;100608.50;;;5.81;100.00
70206;BME280;57593;55.896;37.396;2022-10-16T00:56:07;100604.81;;;5.82;100.00
70206;BME280;57593;55.896;37.396;2022-10-16T00:56:38;100599.84;;;5.80;100.00
70206;BME280;57593;55.896;37.396;2022-10-16T00:57:08;100603.28;;;5.75;100.00
70206;BME280;57593;55.896;37.396;2022-10-16T00:57:39;100600.13;;;5.79;100.00
70206;BME280;57593;55.896;37.396;2022-10-16T00:58:10;100600.34;;;5.82;100.00
70206;BME280;57593;55.896;37.396;2022-10-16T00:58:41;100605.88;;;5.81;100.00
70206;BME280;57593;55.896;37.396;2022-10-16T00:59:18;100607.97;;;5.84;100.00
70206;BME280;57593;55.896;37.396;2022-10-16T00:59:50;100608.22;;;5.82;100.00
70206;BME280;57593;55.896;37.396;2022-10-16T01:00:24;100606.66;;;5.81;100.00
70206;BME280;57593;55.896;37.396;2022-10-16T01:00:55;100608.47;;;5.86;100.00
70206;BME280;57593;55.896;37.396;2022-10-16T01:01:25;100608.47;;;5.86;100.00
70206;BME280;57593;55.896;37.396;2022-10-16T01:01:57;100606.38;;;5.83;100.00
70206;BME280;57593;55.896;37.396;2022-10-16T01:02:28;100605.88;;;5.75;100.00
70206;BME280;57593;55.896;37.396;2022-10-16T01:03:00;100604.03;;;5.76;100.00
70206;BME280;57593;55.896;37.396;2022-10-16T01:03:34;100601.44;;;5.76;100.00
70206;BME280;57593;55.896;37.396;2022-10-16T01:04:05;100603.25;;;5.81;100.00
70206;BME280;57593;55.896;37.396;2022-10-16T01:04:39;100603.25;;;5.81;100.00
70206;BME280;57593;55.896;37.396;2022-10-16T01:05:10;100609.28;;;5.76;100.00
70206;BME280;57593;55.896;37.396;2022-10-16T01:05:54;100610.34;;;5.80;100.00
70206;BME280;57593;55.896;37.396;2022-10-16T01:08:44;100606.44;;;5.72;100.00
70206;BME280;57593;55.896;37.396;2022-10-16T01:09:25;100606.94;;;5.74;100.00
70206;BME280;57593;55.896;37.396;2022-10-16T01:10:07;100605.63;;;5.67;100.00
70206;BME280;57593;55.896;37.396;2022-10-16T01:10:52;100603.53;;;5.74;100.00
70206;BME280;57593;55.896;37.396;2022-10-16T01:11:33;100606.41;;;5.78;100.00
70206;BME280;57593;55.896;37.396;2022-10-16T01:12:10;100609.03;;;5.78;100.00
70206;BME280;57593;55.896;37.396;2022-10-16T01:12:50;100608.25;;;5.77;100.00
70206;BME280;57593;55.896;37.396;2022-10-16T01:14:01;100610.09;;;5.76;100.00
70206;BME280;57593;55.896;37.396;2022-10-16T01:14:47;100611.91;;;5.76;100.00
70206;BME280;57593;55.896;37.396;2022-10-16T01:16:13;100607.72;;;5.70;100.00
70206;BME280;57593;55.896;37.396;2022-10-16T01:16:55;100610.34;;;5.75;100.00
70206;BME280;57593;55.896;37.396;2022-10-16T01:17:35;100608.00;;;5.73;100.00
70206;BME280;57593;55.896;37.396;2022-10-16T01:18:17;100602.75;;;5.68;100.00
70206;BME280;57593;55.896;37.396;2022-10-16T01:19:05;100606.16;;;5.74;100.00
70206;BME280;57593;55.896;37.396;2022-10-16T01:20:10;100604.34;;;5.64;100.00
70206;BME280;57593;55.896;37.396;2022-10-16T01:21:29;100614.03;;;5.69;100.00
70206;BME280;57593;55.896;37.396;2022-10-16T01:22:03;100608.81;;;5.69;100.00
70206;BME280;57593;55.896;37.396;2022-10-16T01:24:33;100613.50;;;5.67;100.00
70206;BME280;57593;55.896;37.396;2022-10-16T01:25:14;100611.16;;;5.70;100.00
70206;BME280;57593;55.896;37.396;2022-10-16T01:26:50;100614.03;;;5.64;100.00
70206;BME280;57593;55.896;37.396;2022-10-16T01:27:30;100609.31;;;5.61;100.00
70206;BME280;57593;55.896;37.396;2022-10-16T01:28:08;100614.03;;;5.64;100.00
70206;BME280;57593;55.896;37.396;2022-10-16T01:28:47;100621.13;;;5.63;100.00
70206;BME280;57593;55.896;37.396;2022-10-16T01:30:17;100620.59;;;5.61;100.00
70206;BME280;57593;55.896;37.396;2022-10-16T01:30:52;100611.69;;;5.62;100.00
70206;BME280;57593;55.896;37.396;2022-10-16T01:31:29;100624.00;;;5.62;100.00
70206;BME280;57593;55.896;37.396;2022-10-16T01:32:16;100623.75;;;5.63;100.00
70206;BME280;57593;55.896;37.396;2022-10-16T01:32:50;100626.63;;;5.62;100.00
70206;BME280;57593;55.896;37.396;2022-10-16T01:33:28;100621.66;;;5.60;100.00
70206;BME280;57593;55.896;37.396;2022-10-16T01:34:22;100625.03;;;5.61;100.00
70206;BME280;57593;55.896;37.396;2022-10-16T01:35:43;100622.16;;;5.62;100.00
70206;BME280;57593;55.896;37.396;2022-10-16T01:36:21;100624.00;;;5.62;100.00
70206;BME280;57593;55.896;37.396;2022-10-16T01:36:57;100621.63;;;5.65;100.00
70206;BME280;57593;55.896;37.396;2022-10-16T01:37:40;100622.16;;;5.62;100.00
70206;BME280;57593;55.896;37.396;2022-10-16T01:38:17;100625.84;;;5.66;100.00
70206;BME280;57593;55.896;37.396;2022-10-16T01:38:51;100624.53;;;5.64;100.00
70206;BME280;57593;55.896;37.396;2022-10-16T01:39:29;100616.94;;;5.57;100.00
70206;BME280;57593;55.896;37.396;2022-10-16T01:40:06;100621.13;;;5.58;100.00
70206;BME280;57593;55.896;37.396;2022-10-16T01:40:40;100625.03;;;5.61;100.00
70206;BME280;57593;55.896;37.396;2022-10-16T01:41:34;100627.69;;;5.55;100.00
70206;BME280;57593;55.896;37.396;2022-10-16T01:42:31;100619.56;;;5.57;100.00
70206;BME280;57593;55.896;37.396;2022-10-16T01:43:17;100622.19;;;5.57;100.00
70206;BME280;57593;55.896;37.396;2022-10-16T01:43:54;100622.69;;;5.59;100.00
70206;BME280;57593;55.896;37.396;2022-10-16T01:44:37;100618.50;;;5.53;100.00
70206;BME280;57593;55.896;37.396;2022-10-16T01:45:11;100617.72;;;5.52;100.00
70206;BME280;57593;55.896;37.396;2022-10-16T01:45:45;100619.56;;;5.57;100.00
70206;BME280;57593;55.896;37.396;2022-10-16T01:46:18;100622.94;;;5.57;100.00
70206;BME280;57593;55.896;37.396;2022-10-16T01:46:52;100625.03;;;5.61;100.00
70206;BME280;57593;55.896;37.396;2022-10-16T01:47:25;100619.81;;;5.61;100.00
70206;BME280;57593;55.896;37.396;2022-10-16T01:47:58;100623.75;;;5.58;100.00
70206;BME280;57593;55.896;37.396;2022-10-16T01:48:31;100630.06;;;5.52;100.00
70206;BME280;57593;55.896;37.396;2022-10-16T01:49:03;100629.25;;;5.51;100.00
70206;BME280;57593;55.896;37.396;2022-10-16T01:49:37;100634.25;;;5.58;100.00
70206;BME280;57593;55.896;37.396;2022-10-16T01:50:09;100620.38;;;5.47;100.00
70206;BME280;57593;55.896;37.396;2022-10-16T01:50:41;100622.19;;;5.57;100.00
70206;BME280;57593;55.896;37.396;2022-10-16T01:51:15;100629.25;;;5.56;100.00
70206;BME280;57593;55.896;37.396;2022-10-16T01:51:49;100626.66;;;5.56;100.00
70206;BME280;57593;55.896;37.396;2022-10-16T01:52:25;100625.31;;;5.54;100.00
70206;BME280;57593;55.896;37.396;2022-10-16T01:52:58;100625.06;;;5.55;100.00
70206;BME280;57593;55.896;37.396;2022-10-16T01:53:29;100629.00;;;5.53;100.00
70206;BME280;57593;55.896;37.396;2022-10-16T01:54:01;100629.78;;;5.48;100.00
70206;BME280;57593;55.896;37.396;2022-10-16T01:54:33;100624.00;;;5.51;100.00
70206;BME280;57593;55.896;37.396;2022-10-16T01:55:07;100618.53;;;5.48;100.00
70206;BME280;57593;55.896;37.396;2022-10-16T01:55:43;100619.56;;;5.52;100.00
70206;BME280;57593;55.896;37.396;2022-10-16T01:56:17;100624.56;;;5.53;100.00
70206;BME280;57593;55.896;37.396;2022-10-16T01:56:48;100621.94;;;5.53;100.00
70206;BME280;57593;55.896;37.396;2022-10-16T01:57:21;100624.56;;;5.53;100.00
70206;BME280;57593;55.896;37.396;2022-10-16T01:57:54;100623.47;;;5.54;100.00
70206;BME280;57593;55.896;37.396;2022-10-16T01:58:27;100620.88;;;5.39;100.00
70206;BME280;57593;55.896;37.396;2022-10-16T01:59:05;100624.53;;;5.48;100.00
70206;BME280;57593;55.896;37.396;2022-10-16T01:59:44;100627.97;;;5.49;100.00
70206;BME280;57593;55.896;37.396;2022-10-16T02:00:19;100617.22;;;5.50;100.00
70206;BME280;57593;55.896;37.396;2022-10-16T02:00:52;100621.13;;;5.53;100.00
70206;BME280;57593;55.896;37.396;2022-10-16T02:01:28;100621.94;;;5.53;100.00
70206;BME280;57593;55.896;37.396;2022-10-16T02:02:05;100625.88;;;5.46;100.00
70206;BME280;57593;55.896;37.396;2022-10-16T02:02:40;100627.94;;;5.44;100.00
70206;BME280;57593;55.896;37.396;2022-10-16T02:03:14;100626.13;;;5.44;100.00
70206;BME280;57593;55.896;37.396;2022-10-16T02:03:47;100621.69;;;5.39;100.00
70206;BME280;57593;55.896;37.396;2022-10-16T02:05:05;100621.94;;;5.43;100.00
70206;BME280;57593;55.896;37.396;2022-10-16T02:05:42;100617.22;;;5.40;100.00
70206;BME280;57593;55.896;37.396;2022-10-16T02:06:15;100622.22;;;5.36;100.00
70206;BME280;57593;55.896;37.396;2022-10-16T02:06:46;100619.31;;;5.38;100.00
70206;BME280;57593;55.896;37.396;2022-10-16T02:07:17;100627.44;;;5.42;100.00
70206;BME280;57593;55.896;37.396;2022-10-16T02:07:48;100630.06;;;5.42;100.00
70206;BME280;57593;55.896;37.396;2022-10-16T02:08:21;100617.47;;;5.44;100.00
70206;BME280;57593;55.896;37.396;2022-10-16T02:08:53;100623.75;;;5.48;100.00
70206;BME280;57593;55.896;37.396;2022-10-16T02:09:24;100617.75;;;5.47;100.00
70206;BME280;57593;55.896;37.396;2022-10-16T02:09:55;100619.81;;;5.45;100.00
70206;BME280;57593;55.896;37.396;2022-10-16T02:10:26;100626.13;;;5.39;100.00
70206;BME280;57593;55.896;37.396;2022-10-16T02:11:01;100620.91;;;5.34;100.00
70206;BME280;57593;55.896;37.396;2022-10-16T02:11:32;100621.41;;;5.36;100.00
70206;BME280;57593;55.896;37.396;2022-10-16T02:12:27;100624.81;;;5.47;100.00
70206;BME280;57593;55.896;37.396;2022-10-16T02:13:15;100626.13;;;5.39;100.00
70206;BME280;57593;55.896;37.396;2022-10-16T02:14:07;100630.31;;;5.45;100.00
70206;BME280;57593;55.896;37.396;2022-10-16T02:14:39;100615.13;;;5.42;100.00
70206;BME280;57593;55.896;37.396;2022-10-16T02:15:10;100624.28;;;5.45;100.00
70206;BME280;57593;55.896;37.396;2022-10-16T02:15:41;100627.69;;;5.45;100.00
70206;BME280;57593;55.896;37.396;2022-10-16T02:16:13;100631.38;;;5.44;100.00
70206;BME280;57593;55.896;37.396;2022-10-16T02:16:45;100629.78;;;5.43;100.00
70206;BME280;57593;55.896;37.396;2022-10-16T02:17:17;100636.88;;;5.43;100.00
70206;BME280;57593;55.896;37.396;2022-10-16T02:17:48;100628.47;;;5.40;100.00
70206;BME280;57593;55.896;37.396;2022-10-16T02:18:19;100629.00;;;5.43;100.00
70206;BME280;57593;55.896;37.396;2022-10-16T02:18:50;100627.44;;;5.47;100.00
70206;BME280;57593;55.896;37.396;2022-10-16T02:19:21;100629.25;;;5.51;100.00
70206;BME280;57593;55.896;37.396;2022-10-16T02:19:54;100626.91;;;5.45;100.00
70206;BME280;57593;55.896;37.396;2022-10-16T02:20:28;100625.31;;;5.44;100.00
70206;BME280;57593;55.896;37.396;2022-10-16T02:21:17;100628.50;;;5.46;100.00
70206;BME280;57593;55.896;37.396;2022-10-16T02:21:58;100629.53;;;5.45;100.00
70206;BME280;57593;55.896;37.396;2022-10-16T02:22:38;100632.41;;;5.43;100.00
70206;BME280;57593;55.896;37.396;2022-10-16T02:23:13;100628.75;;;5.39;100.00
70206;BME280;57593;55.896;37.396;2022-10-16T02:23:51;100630.56;;;5.44;100.00
70206;BME280;57593;55.896;37.396;2022-10-16T02:24:43;100625.88;;;5.46;100.00
70206;BME280;57593;55.896;37.396;2022-10-16T02:25:28;100629.25;;;5.46;100.00
70206;BME280;57593;55.896;37.396;2022-10-16T02:26:03;100633.72;;;5.40;100.00
70206;BME280;57593;55.896;37.396;2022-10-16T02:26:46;100632.69;;;5.36;100.00
70206;BME280;57593;55.896;37.396;2022-10-16T02:28:06;100625.34;;;5.33;100.00
70206;BME280;57593;55.896;37.396;2022-10-16T02:28:44;100629.78;;;5.33;100.00
70206;BME280;57593;55.896;37.396;2022-10-16T02:29:18;100629.28;;;5.31;100.00
70206;BME280;57593;55.896;37.396;2022-10-16T02:29:54;100642.38;;;5.31;100.00
70206;BME280;57593;55.896;37.396;2022-10-16T02:31:02;100635.28;;;5.31;100.00
70206;BME280;57593;55.896;37.396;2022-10-16T02:31:35;100637.91;;;5.31;100.00
70206;BME280;57593;55.896;37.396;2022-10-16T02:32:09;100639.22;;;5.34;100.00
70206;BME280;57593;55.896;37.396;2022-10-16T02:32:44;100635.81;;;5.38;100.00
70206;BME280;57593;55.896;37.396;2022-10-16T02:33:17;100647.59;;;5.36;100.00
70206;BME280;57593;55.896;37.396;2022-10-16T02:33:50;100638.97;;;5.30;100.00
70206;BME280;57593;55.896;37.396;2022-10-16T02:34:24;100645.78;;;5.36;100.00
70206;BME280;57593;55.896;37.396;2022-10-16T02:34:57;100646.03;;;5.40;100.00
70206;BME280;57593;55.896;37.396;2022-10-16T02:35:30;100647.09;;;5.29;100.00
70206;BME280;57593;55.896;37.396;2022-10-16T02:36:02;100645.25;;;5.24;100.00
70206;BME280;57593;55.896;37.396;2022-10-16T02:36:33;100647.63;;;5.26;100.00
70206;BME280;57593;55.896;37.396;2022-10-16T02:37:06;100638.16;;;5.30;100.00
70206;BME280;57593;55.896;37.396;2022-10-16T02:37:38;100644.22;;;5.30;100.00
70206;BME280;57593;55.896;37.396;2022-10-16T02:38:10;100630.06;;;5.31;100.00
70206;BME280;57593;55.896;37.396;2022-10-16T02:38:42;100634.50;;;5.36;100.00
70206;BME280;57593;55.896;37.396;2022-10-16T02:39:13;100637.38;;;5.34;100.00
70206;BME280;57593;55.896;37.396;2022-10-16T02:39:44;100647.63;;;5.31;100.00
70206;BME280;57593;55.896;37.396;2022-10-16T02:40:15;100645.50;;;5.33;100.00
70206;BME280;57593;55.896;37.396;2022-10-16T02:40:47;100640.28;;;5.33;100.00
70206;BME280;57593;55.896;37.396;2022-10-16T02:41:18;100636.88;;;5.32;100.00
70206;BME280;57593;55.896;37.396;2022-10-16T02:41:49;100636.38;;;5.25;100.00
70206;BME280;57593;55.896;37.396;2022-10-16T02:42:20;100642.63;;;5.29;100.00
70206;BME280;57593;55.896;37.396;2022-10-16T02:42:52;100636.09;;;5.37;100.00
70206;BME280;57593;55.896;37.396;2022-10-16T02:43:25;100643.69;;;5.33;100.00
70206;BME280;57593;55.896;37.396;2022-10-16T02:43:56;100639.50;;;5.27;100.00
70206;BME280;57593;55.896;37.396;2022-10-16T02:44:26;100645.25;;;5.29;100.00
70206;BME280;57593;55.896;37.396;2022-10-16T02:44:57;100654.16;;;5.28;100.00
70206;BME280;57593;55.896;37.396;2022-10-16T02:45:28;100648.13;;;5.33;100.00
70206;BME280;57593;55.896;37.396;2022-10-16T02:45:59;100643.44;;;5.35;100.00
70206;BME280;57593;55.896;37.396;2022-10-16T02:46:30;100644.47;;;5.34;100.00
70206;BME280;57593;55.896;37.396;2022-10-16T02:47:01;100637.66;;;5.38;100.00
70206;BME280;57593;55.896;37.396;2022-10-16T02:47:33;100650.47;;;5.34;100.00
70206;BME280;57593;55.896;37.396;2022-10-16T02:48:04;100643.69;;;5.33;100.00
70206;BME280;57593;55.896;37.396;2022-10-16T02:48:34;100639.75;;;5.36;100.00
70206;BME280;57593;55.896;37.396;2022-10-16T02:49:06;100639.75;;;5.41;100.00
70206;BME280;57593;55.896;37.396;2022-10-16T02:49:36;100648.16;;;5.38;100.00
70206;BME280;57593;55.896;37.396;2022-10-16T02:50:07;100646.81;;;5.35;100.00
70206;BME280;57593;55.896;37.396;2022-10-16T02:50:38;100646.31;;;5.33;100.00
70206;BME280;57593;55.896;37.396;2022-10-16T02:51:08;100648.13;;;5.33;100.00
70206;BME280;57593;55.896;37.396;2022-10-16T02:51:39;100647.88;;;5.34;100.00
70206;BME280;57593;55.896;37.396;2022-10-16T02:52:10;100638.97;;;5.35;100.00
70206;BME280;57593;55.896;37.396;2022-10-16T02:52:40;100649.69;;;5.39;100.00
70206;BME280;57593;55.896;37.396;2022-10-16T02:53:11;100643.44;;;5.35;100.00
70206;BME280;57593;55.896;37.396;2022-10-16T02:53:42;100642.13;;;5.32;100.00
70206;BME280;57593;55.896;37.396;2022-10-16T02:54:12;100645.50;;;5.33;100.00
70206;BME280;57593;55.896;37.396;2022-10-16T02:54:43;100644.47;;;5.34;100.00
70206;BME280;57593;55.896;37.396;2022-10-16T02:55:14;100642.63;;;5.29;100.00
70206;BME280;57593;55.896;37.396;2022-10-16T02:55:44;100646.84;;;5.30;100.00
70206;BME280;57593;55.896;37.396;2022-10-16T02:56:15;100650.50;;;5.29;100.00
70206;BME280;57593;55.896;37.396;2022-10-16T02:56:46;100638.44;;;5.28;100.00
70206;BME280;57593;55.896;37.396;2022-10-16T02:57:16;100646.06;;;5.19;100.00
70206;BME280;57593;55.896;37.396;2022-10-16T02:57:47;100652.59;;;5.22;100.00
70206;BME280;57593;55.896;37.396;2022-10-16T02:58:18;100643.94;;;5.21;100.00
70206;BME280;57593;55.896;37.396;2022-10-16T02:58:48;100647.91;;;5.19;100.00
70206;BME280;57593;55.896;37.396;2022-10-16T02:59:19;100647.38;;;5.22;100.00
70206;BME280;57593;55.896;37.396;2022-10-16T02:59:50;100648.16;;;5.22;100.00
70206;BME280;57593;55.896;37.396;2022-10-16T03:00:20;100640.56;;;5.21;100.00
70206;BME280;57593;55.896;37.396;2022-10-16T03:00:51;100646.81;;;5.20;100.00
70206;BME280;57593;55.896;37.396;2022-10-16T03:01:22;100649.47;;;5.25;100.00
70206;BME280;57593;55.896;37.396;2022-10-16T03:01:53;100642.91;;;5.28;100.00
70206;BME280;57593;55.896;37.396;2022-10-16T03:02:23;100646.84;;;5.25;100.00
70206;BME280;57593;55.896;37.396;2022-10-16T03:02:54;100653.38;;;5.28;100.00
70206;BME280;57593;55.896;37.396;2022-10-16T03:03:25;100652.88;;;5.20;100.00
70206;BME280;57593;55.896;37.396;2022-10-16T03:03:55;100645.53;;;5.17;100.00
70206;BME280;57593;55.896;37.396;2022-10-16T03:04:26;100653.13;;;5.24;100.00
70206;BME280;57593;55.896;37.396;2022-10-16T03:04:57;100645.25;;;5.24;100.00
70206;BME280;57593;55.896;37.396;2022-10-16T03:05:27;100641.59;;;5.20;100.00
70206;BME280;57593;55.896;37.396;2022-10-16T03:05:58;100647.91;;;5.19;100.00
70206;BME280;57593;55.896;37.396;2022-10-16T03:06:29;100647.34;;;5.17;100.00
70206;BME280;57593;55.896;37.396;2022-10-16T03:06:59;100656.53;;;5.19;100.00
70206;BME280;57593;55.896;37.396;2022-10-16T03:07:30;100649.97;;;5.17;100.00